Time;durP1;ratioP1;P1;durP2;ratioP2;P2;SDS_P1;SDS_P2;PMS_P1;PMS_P2;Temp;Humidity;BMP_temperature;BMP_pressure;BME280_temperature;BME280_humidity;BME280_pressure;Samples;Min_cycle;Max_cycle;Signal;HPM_P1;HPM_P2
2023/06/28 00:01:39;;;;;;;4.50;1.77;;;;;;;13.25;97.83;100722.97;5038371;28;20222;-82
2023/06/28 00:04:06;;;;;;;2.20;2.00;;;;;;;13.29;97.51;100735.13;5037047;28;20209;-82
2023/06/28 00:06:34;;;;;;;4.37;1.77;;;;;;;13.31;98.02;100732.47;5036565;28;20212;-82
2023/06/28 00:09:00;;;;;;;2.93;1.97;;;;;;;13.38;99.99;100718.31;5036901;28;20212;-83
2023/06/28 00:11:28;;;;;;;6.33;1.60;;;;;;;13.31;98.93;100720.22;5040518;28;20227;-84
2023/06/28 00:13:54;;;;;;;4.47;2.37;;;;;;;13.26;99.44;100711.59;5034716;28;20225;-84
2023/06/28 00:16:21;;;;;;;4.97;2.00;;;;;;;13.22;98.88;100717.81;5038631;28;20202;-82
2023/06/28 00:18:48;;;;;;;2.97;1.90;;;;;;;13.18;99.87;100703.06;5036404;28;20279;-83
2023/06/28 00:21:15;;;;;;;3.17;2.30;;;;;;;13.20;100.00;100700.38;5035970;28;20233;-84
2023/06/28 00:23:42;;;;;;;3.93;1.87;;;;;;;13.22;100.00;100682.84;5038449;28;20263;-84
2023/06/28 00:26:10;;;;;;;2.73;1.77;;;;;;;13.24;99.82;100700.28;5038572;28;20230;-82
2023/06/28 00:28:36;;;;;;;3.90;1.80;;;;;;;13.29;99.51;100708.03;5036254;28;20579;-82
2023/06/28 00:31:03;;;;;;;2.80;1.90;;;;;;;13.23;100.00;100692.44;5036251;28;20643;-83
2023/06/28 00:33:29;;;;;;;3.80;1.80;;;;;;;13.35;100.00;100688.69;5036494;28;20244;-84
2023/06/28 00:35:57;;;;;;;3.13;1.70;;;;;;;13.38;100.00;100683.34;5035303;28;20202;-82
2023/06/28 00:38:23;;;;;;;2.33;1.67;;;;;;;13.34;100.00;100676.47;5036267;28;20202;-85
2023/06/28 00:40:50;;;;;;;2.93;1.90;;;;;;;13.37;100.00;100677.25;5020253;28;20242;-82
2023/06/28 00:43:16;;;;;;;2.80;2.07;;;;;;;13.36;100.00;100679.91;5028368;28;20210;-84
2023/06/28 00:45:43;;;;;;;3.97;2.23;;;;;;;13.37;100.00;100666.75;5036688;28;20208;-83
2023/06/28 00:48:10;;;;;;;3.80;2.10;;;;;;;13.43;100.00;100663.97;5044761;28;20229;-84
2023/06/28 00:50:37;;;;;;;3.87;2.07;;;;;;;13.29;100.00;100658.22;5036897;28;20233;-82
2023/06/28 00:53:05;;;;;;;3.97;2.00;;;;;;;13.35;100.00;100644.97;5036211;28;20229;-83
2023/06/28 00:55:32;;;;;;;4.53;2.13;;;;;;;13.25;100.00;100640.84;5035325;28;20205;-83
2023/06/28 00:57:58;;;;;;;3.97;1.97;;;;;;;13.21;100.00;100640.06;5036004;28;20264;-83
2023/06/28 01:00:26;;;;;;;3.07;2.13;;;;;;;13.16;100.00;100646.31;5035988;28;20669;-84
2023/06/28 01:02:53;;;;;;;4.23;2.10;;;;;;;13.06;100.00;100653.56;5036009;28;20591;-83
2023/06/28 01:05:20;;;;;;;3.03;2.20;;;;;;;13.07;100.00;100647.44;5035616;28;20574;-83
2023/06/28 01:07:48;;;;;;;6.57;2.30;;;;;;;13.10;100.00;100650.84;5036094;28;20592;-83
2023/06/28 01:10:18;;;;;;;3.83;2.10;;;;;;;13.07;100.00;100650.91;5024240;28;20291;-82
2023/06/28 01:12:45;;;;;;;4.43;2.53;;;;;;;13.00;100.00;100649.34;5022385;28;20296;-82
2023/06/28 01:15:11;;;;;;;3.70;2.20;;;;;;;12.96;100.00;100649.47;5034986;28;20282;-84
2023/06/28 01:17:38;;;;;;;5.13;2.47;;;;;;;13.06;100.00;100656.19;5035657;28;20204;-84
2023/06/28 01:20:05;;;;;;;3.97;2.60;;;;;;;13.07;100.00;100671.88;5035733;28;20691;-84
2023/06/28 01:22:35;;;;;;;3.93;2.47;;;;;;;13.10;100.00;100661.31;5037939;28;20229;-84
2023/06/28 01:25:02;;;;;;;4.37;2.10;;;;;;;13.10;100.00;100689.28;5036570;28;20679;-83
2023/06/28 01:27:29;;;;;;;3.27;2.00;;;;;;;13.17;100.00;100680.34;5036155;28;20252;-84
2023/06/28 01:29:56;;;;;;;3.43;2.03;;;;;;;13.13;100.00;100663.00;5035635;28;20234;-84
2023/06/28 01:32:24;;;;;;;2.67;1.90;;;;;;;13.12;100.00;100666.50;5036246;28;20225;-84
2023/06/28 01:34:50;;;;;;;3.77;2.20;;;;;;;13.08;100.00;100670.09;5035651;28;20232;-82
2023/06/28 01:37:18;;;;;;;4.03;2.67;;;;;;;13.05;100.00;100671.06;5037421;28;20266;-82
2023/06/28 01:39:45;;;;;;;4.87;2.40;;;;;;;12.98;100.00;100687.81;5030098;28;20206;-84
2023/06/28 01:42:15;;;;;;;4.27;2.10;;;;;;;13.05;100.00;100699.88;5029530;28;20736;-84
2023/06/28 01:44:41;;;;;;;4.37;2.00;;;;;;;13.10;100.00;100676.16;5042364;28;20208;-84
2023/06/28 01:47:08;;;;;;;6.83;1.93;;;;;;;13.13;100.00;100678.72;5037032;28;20335;-84
2023/06/28 01:49:36;;;;;;;3.97;2.00;;;;;;;13.05;100.00;100683.31;5037172;28;20237;-85
2023/06/28 01:52:03;;;;;;;3.57;2.07;;;;;;;12.88;100.00;100683.69;5037718;28;20229;-84
2023/06/28 01:54:32;;;;;;;4.97;2.40;;;;;;;13.04;100.00;100661.47;5036675;28;20226;-83
2023/06/28 01:56:58;;;;;;;7.13;2.17;;;;;;;13.04;100.00;100660.59;5037092;28;20209;-85
2023/06/28 01:59:26;;;;;;;4.23;2.30;;;;;;;12.94;100.00;100667.81;5037142;28;20574;-85
2023/06/28 02:01:52;;;;;;;3.07;2.43;;;;;;;12.97;100.00;100670.38;5037613;28;20252;-84
2023/06/28 02:04:19;;;;;;;3.77;2.10;;;;;;;12.99;100.00;100670.34;5045059;28;20209;-84
2023/06/28 02:06:45;;;;;;;2.80;2.40;;;;;;;12.92;100.00;100667.00;5037739;28;20202;-85
2023/06/28 02:09:11;;;;;;;2.90;1.93;;;;;;;12.97;100.00;100664.28;5037627;28;20235;-85
2023/06/28 02:11:38;;;;;;;3.60;2.10;;;;;;;12.90;100.00;100650.47;5021364;28;20225;-85
2023/06/28 02:14:04;;;;;;;4.63;2.40;;;;;;;12.75;100.00;100637.78;5039504;28;20221;-83
2023/06/28 02:16:32;;;;;;;7.20;3.23;;;;;;;12.74;100.00;100628.19;5046791;28;20209;-84
2023/06/28 02:18:59;;;;;;;2.77;2.57;;;;;;;12.73;100.00;100644.81;5050659;28;20213;-85
2023/06/28 02:21:25;;;;;;;3.60;2.60;;;;;;;12.83;100.00;100634.06;5047759;28;20229;-83
2023/06/28 02:23:51;;;;;;;5.10;2.70;;;;;;;12.71;100.00;100623.88;5049685;28;20235;-84
2023/06/28 02:26:18;;;;;;;3.73;2.70;;;;;;;12.82;100.00;100624.47;5046110;28;20259;-84
2023/06/28 02:28:44;;;;;;;3.03;2.43;;;;;;;12.90;100.00;100619.91;5039639;28;20205;-83
2023/06/28 02:31:11;;;;;;;4.90;3.00;;;;;;;12.80;100.00;100626.25;5039203;28;20259;-84
2023/06/28 02:33:38;;;;;;;3.70;2.43;;;;;;;12.89;100.00;100635.66;5039558;28;20234;-84
2023/06/28 02:36:07;;;;;;;4.40;2.20;;;;;;;12.93;100.00;100647.78;5046774;28;20252;-85
2023/06/28 02:38:33;;;;;;;5.50;2.67;;;;;;;12.88;100.00;100642.66;5039641;28;20205;-82
2023/06/28 02:41:00;;;;;;;3.17;2.73;;;;;;;12.91;100.00;100642.56;5022394;28;20268;-84
2023/06/28 02:43:28;;;;;;;3.93;2.30;;;;;;;12.99;100.00;100645.00;5031698;28;20213;-82
2023/06/28 02:45:54;;;;;;;2.97;2.30;;;;;;;13.00;100.00;100638.00;5039687;28;20228;-83
2023/06/28 02:48:20;;;;;;;3.07;2.40;;;;;;;12.95;100.00;100645.13;5030744;28;20298;-84
2023/06/28 02:50:48;;;;;;;3.50;2.47;;;;;;;12.87;100.00;100650.56;5038209;28;20225;-83
2023/06/28 02:53:15;;;;;;;4.60;2.33;;;;;;;12.94;100.00;100639.00;5038914;28;20209;-83
2023/06/28 02:55:41;;;;;;;4.27;2.30;;;;;;;12.95;100.00;100648.59;5039146;28;20786;-85
2023/06/28 02:58:08;;;;;;;7.40;3.47;;;;;;;12.94;100.00;100652.09;5040112;28;20212;-85
2023/06/28 03:00:37;;;;;;;4.07;2.27;;;;;;;12.89;100.00;100665.34;5039297;28;20212;-84
2023/06/28 03:03:09;;;;;;;6.40;2.33;;;;;;;12.94;100.00;100659.97;5039231;28;20224;-83
2023/06/28 03:05:35;;;;;;;3.40;2.43;;;;;;;12.67;100.00;100674.63;5037856;28;20585;-84
2023/06/28 03:08:04;;;;;;;5.07;2.90;;;;;;;12.73;100.00;100663.16;5038536;28;20266;-84
2023/06/28 03:10:30;;;;;;;3.97;2.23;;;;;;;12.74;100.00;100662.22;5025886;28;20251;-83
2023/06/28 03:12:56;;;;;;;4.00;2.67;;;;;;;12.88;100.00;100662.75;5026973;28;20206;-83
2023/06/28 03:15:23;;;;;;;3.70;2.70;;;;;;;12.90;100.00;100672.31;5038121;28;20363;-83
2023/06/28 03:17:49;;;;;;;4.47;2.30;;;;;;;12.96;100.00;100670.41;5038387;28;20208;-84
2023/06/28 03:20:16;;;;;;;3.60;3.13;;;;;;;13.04;100.00;100671.09;5036419;28;20265;-85
2023/06/28 03:22:42;;;;;;;7.07;2.67;;;;;;;13.02;100.00;100678.13;5040898;28;20228;-85
2023/06/28 03:25:10;;;;;;;3.50;2.43;;;;;;;12.80;100.00;100686.50;5040870;28;20272;-84
2023/06/28 03:27:36;;;;;;;3.47;2.30;;;;;;;12.91;100.00;100694.13;5038202;28;20259;-83
2023/06/28 03:30:03;;;;;;;4.37;2.40;;;;;;;12.96;100.00;100678.28;5046465;28;20270;-82
2023/06/28 03:32:30;;;;;;;7.33;2.73;;;;;;;12.81;100.00;100666.44;5037682;28;20279;-84
2023/06/28 03:34:57;;;;;;;3.60;2.40;;;;;;;12.75;100.00;100680.53;5036928;28;20239;-84
2023/06/28 03:37:23;;;;;;;3.23;2.53;;;;;;;12.82;100.00;100679.47;5038612;28;20214;-83
2023/06/28 03:39:50;;;;;;;4.13;2.40;;;;;;;12.81;100.00;100667.28;5029873;28;20646;-82
2023/06/28 03:42:18;;;;;;;3.73;2.47;;;;;;;12.74;100.00;100673.56;5027733;28;20234;-82
2023/06/28 03:44:44;;;;;;;3.40;2.67;;;;;;;12.74;100.00;100680.56;5037596;28;20194;-83
2023/06/28 03:47:10;;;;;;;5.73;2.70;;;;;;;12.67;100.00;100662.38;5037580;28;20215;-83
2023/06/28 03:49:37;;;;;;;4.80;2.70;;;;;;;12.71;100.00;100678.88;5039849;28;20213;-84
2023/06/28 03:52:03;;;;;;;5.23;2.37;;;;;;;12.83;100.00;100670.72;5038071;28;20225;-83
2023/06/28 03:54:30;;;;;;;5.60;2.83;;;;;;;12.86;100.00;100673.28;5036756;28;20712;-83
2023/06/28 03:56:56;;;;;;;3.10;2.77;;;;;;;12.85;100.00;100691.66;5037190;28;20214;-84
2023/06/28 03:59:26;;;;;;;3.27;2.53;;;;;;;12.81;100.00;100682.16;5037064;28;20262;-83
2023/06/28 04:01:53;;;;;;;3.67;2.73;;;;;;;12.84;100.00;100675.09;5037083;28;20230;-83
2023/06/28 04:04:19;;;;;;;4.53;2.37;;;;;;;12.86;100.00;100670.66;5045167;28;20212;-84
2023/06/28 04:06:46;;;;;;;4.63;2.63;;;;;;;12.90;100.00;100668.81;5037144;28;20205;-84
2023/06/28 04:09:12;;;;;;;5.27;2.40;;;;;;;12.98;100.00;100673.84;5034805;28;20205;-85
2023/06/28 04:11:39;;;;;;;2.97;2.23;;;;;;;13.03;100.00;100675.47;5016693;28;20219;-83
2023/06/28 04:14:05;;;;;;;3.87;2.77;;;;;;;13.16;100.00;100685.63;5034961;28;20687;-84
2023/06/28 04:16:35;;;;;;;6.20;2.63;;;;;;;13.07;100.00;100687.59;5036411;28;20248;-83
2023/06/28 04:19:02;;;;;;;3.17;2.30;;;;;;;13.03;100.00;100682.47;5036730;28;20209;-84
2023/06/28 04:21:28;;;;;;;5.60;3.00;;;;;;;13.09;100.00;100680.56;5036199;28;20232;-84
2023/06/28 04:23:55;;;;;;;4.23;3.00;;;;;;;13.11;100.00;100699.72;5036462;28;20220;-84
2023/06/28 04:26:21;;;;;;;6.07;2.87;;;;;;;13.22;100.00;100711.69;5030193;28;20268;-83
2023/06/28 04:28:48;;;;;;;5.60;2.60;;;;;;;13.21;100.00;100712.59;5037316;28;20927;-84
2023/06/28 04:31:14;;;;;;;7.27;2.90;;;;;;;13.21;100.00;100717.84;5036609;28;20229;-83
2023/06/28 04:33:42;;;;;;;3.17;2.87;;;;;;;13.19;100.00;100711.78;5036865;28;20625;-84
2023/06/28 04:36:09;;;;;;;3.00;2.23;;;;;;;13.25;100.00;100707.22;5036075;28;20251;-83
2023/06/28 04:38:36;;;;;;;5.40;3.17;;;;;;;13.28;100.00;100711.56;5039056;28;20206;-82
2023/06/28 04:41:03;;;;;;;4.83;2.90;;;;;;;13.25;100.00;100717.72;5039358;28;20238;-83
2023/06/28 04:43:39;;;;;;;5.60;2.73;;;;;;;13.26;100.00;100716.84;5030086;28;20579;-85
2023/06/28 04:46:08;;;;;;;3.80;2.80;;;;;;;13.29;100.00;100710.66;5040260;28;20208;-84
2023/06/28 04:48:35;;;;;;;3.53;2.87;;;;;;;13.24;100.00;100700.28;5040507;28;20577;-83
2023/06/28 04:51:02;;;;;;;6.53;3.37;;;;;;;13.29;100.00;100705.41;5036084;28;20372;-84
2023/06/28 04:53:29;;;;;;;4.43;2.57;;;;;;;13.35;100.00;100712.28;5035854;28;20582;-83
2023/06/28 04:55:55;;;;;;;9.30;3.83;;;;;;;13.35;100.00;100718.38;5044345;28;20222;-83
2023/06/28 04:58:22;;;;;;;4.90;3.00;;;;;;;13.31;100.00;100716.75;5028971;28;20236;-83
2023/06/28 05:00:48;;;;;;;7.43;3.00;;;;;;;13.47;100.00;100712.81;5036166;28;20602;-84
2023/06/28 05:03:17;;;;;;;5.80;3.30;;;;;;;13.54;100.00;100721.38;5035945;28;20260;-82
2023/06/28 05:05:57;;;;;;;3.20;2.80;;;;;;;13.63;100.00;100736.00;5032633;28;20198;-84
2023/06/28 05:08:28;;;;;;;5.97;3.00;;;;;;;13.69;100.00;100728.81;5049418;28;20229;-80
2023/06/28 05:10:57;;;;;;;4.70;2.93;;;;;;;13.83;100.00;100735.47;5034307;28;20225;-83
2023/06/28 05:13:51;;;;;;;3.07;2.73;;;;;;;13.79;100.00;100733.81;5016705;28;20206;-83
2023/06/28 05:16:35;;;;;;;3.53;3.00;;;;;;;13.80;100.00;100720.69;5035082;28;20618;-83
2023/06/28 05:19:01;;;;;;;5.40;2.90;;;;;;;13.87;100.00;100726.59;5035251;28;20232;-83
2023/06/28 05:21:28;;;;;;;5.33;3.07;;;;;;;13.81;100.00;100713.66;5038104;28;20234;-84
2023/06/28 05:24:02;;;;;;;4.13;3.33;;;;;;;13.82;100.00;100713.63;5049172;28;20244;-83
2023/06/28 05:26:38;;;;;;;5.63;2.87;;;;;;;13.87;100.00;100705.59;5027004;28;20251;-83
2023/06/28 05:29:05;;;;;;;3.97;2.87;;;;;;;13.85;100.00;100712.66;5034062;28;20293;-83
2023/06/28 05:31:32;;;;;;;5.20;2.60;;;;;;;14.05;100.00;100722.59;5034030;28;20229;-82
2023/06/28 05:34:02;;;;;;;3.63;2.93;;;;;;;14.11;100.00;100740.78;5033995;28;20222;-81
2023/06/28 05:36:38;;;;;;;4.70;3.27;;;;;;;14.13;100.00;100744.22;5033100;28;20312;-81
2023/06/28 05:39:06;;;;;;;4.90;2.93;;;;;;;14.16;100.00;100740.69;5034296;28;20676;-82
2023/06/28 05:41:32;;;;;;;4.23;2.40;;;;;;;14.25;100.00;100762.28;5027255;28;20238;-82
2023/06/28 05:43:59;;;;;;;5.80;2.90;;;;;;;14.29;100.00;100756.03;5024574;28;20216;-81
2023/06/28 05:46:28;;;;;;;4.40;3.40;;;;;;;14.26;100.00;100774.50;5034355;28;20201;-81
2023/06/28 05:49:00;;;;;;;3.97;3.30;;;;;;;14.39;100.00;100784.63;5042325;28;20545;-82
2023/06/28 05:51:48;;;;;;;4.33;2.77;;;;;;;14.39;100.00;100782.88;5026218;28;20226;-83
2023/06/28 05:54:15;;;;;;;4.30;2.73;;;;;;;14.44;100.00;100790.63;5027432;28;20206;-82
2023/06/28 05:56:42;;;;;;;6.27;3.23;;;;;;;14.39;100.00;100811.78;5033437;28;20222;-81
2023/06/28 06:00:00;;;;;;;4.53;2.47;;;;;;;14.39;100.00;100817.03;5033387;28;20305;-83
2023/06/28 06:02:33;;;;;;;3.63;2.80;;;;;;;14.50;100.00;100796.53;4999150;28;20720;-82
2023/06/28 06:04:59;;;;;;;4.30;2.47;;;;;;;14.53;100.00;100800.88;5028547;28;20703;-83
2023/06/28 06:07:35;;;;;;;5.30;2.83;;;;;;;14.58;100.00;100806.00;5034746;28;20206;-83
2023/06/28 06:10:03;;;;;;;2.83;2.13;;;;;;;14.70;100.00;100801.22;5033622;28;20575;-82
2023/06/28 06:12:30;;;;;;;4.03;2.30;;;;;;;14.67;99.79;100817.09;5023093;28;20230;-80
2023/06/28 06:15:01;;;;;;;7.13;3.00;;;;;;;14.74;99.53;100830.91;5029380;28;20230;-82
2023/06/28 06:17:27;;;;;;;4.27;2.70;;;;;;;14.63;98.90;100825.13;5033197;28;20216;-82
2023/06/28 06:19:58;;;;;;;4.83;3.67;;;;;;;14.78;99.67;100829.91;5048787;28;20198;-81
2023/06/28 06:22:24;;;;;;;3.73;3.37;;;;;;;14.76;98.94;100830.88;5034256;28;20563;-82
2023/06/28 06:24:56;;;;;;;5.97;2.50;;;;;;;14.84;99.99;100816.56;5032817;28;20265;-82
2023/06/28 06:27:24;;;;;;;5.33;2.83;;;;;;;14.77;98.89;100843.13;5038328;28;20237;-82
2023/06/28 06:29:50;;;;;;;6.17;2.60;;;;;;;14.86;99.36;100825.28;5047107;28;20236;-80
2023/06/28 06:32:17;;;;;;;3.60;2.87;;;;;;;14.91;97.58;100845.34;5034945;28;20279;-81
2023/06/28 06:34:45;;;;;;;4.87;2.40;;;;;;;14.93;98.25;100847.00;5033965;28;20210;-81
2023/06/28 06:37:14;;;;;;;4.30;2.50;;;;;;;14.98;98.12;100828.44;5036009;28;20206;-82
2023/06/28 06:39:40;;;;;;;4.67;2.70;;;;;;;15.13;98.97;100832.38;5036850;28;20237;-83
2023/06/28 06:42:07;;;;;;;4.60;2.90;;;;;;;15.24;99.37;100815.34;5016508;28;20259;-81
2023/06/28 06:44:35;;;;;;;4.17;2.30;;;;;;;15.24;97.69;100846.91;5028663;28;20673;-82
2023/06/28 06:47:02;;;;;;;4.00;2.97;;;;;;;15.20;96.91;100874.22;5035506;28;20213;-79
2023/06/28 06:49:28;;;;;;;6.03;3.17;;;;;;;15.26;98.63;100852.97;5036277;28;20583;-81
2023/06/28 06:51:55;;;;;;;3.47;2.33;;;;;;;15.37;98.75;100842.09;5034276;28;20222;-82
2023/06/28 06:54:21;;;;;;;7.90;2.90;;;;;;;15.48;98.42;100847.03;5027739;28;20236;-79
2023/06/28 06:56:47;;;;;;;5.80;3.33;;;;;;;15.52;97.52;100851.28;5036015;28;20226;-81
2023/06/28 06:59:16;;;;;;;4.90;2.50;;;;;;;15.60;97.21;100865.03;5036267;28;20214;-80
2023/06/28 07:01:44;;;;;;;5.20;2.50;;;;;;;15.75;97.17;100868.09;5037553;28;20231;-82
2023/06/28 07:04:10;;;;;;;4.60;3.43;;;;;;;15.67;94.13;100907.81;5036463;28;20264;-81
2023/06/28 07:06:37;;;;;;;5.30;2.40;;;;;;;15.71;94.85;100922.59;5035728;28;20205;-81
2023/06/28 07:09:03;;;;;;;4.13;2.60;;;;;;;15.82;95.27;100914.38;5036667;28;20206;-82
2023/06/28 07:11:30;;;;;;;5.13;3.77;;;;;;;15.77;94.22;100922.41;5036135;28;20222;-80
2023/06/28 07:13:56;;;;;;;6.27;2.70;;;;;;;15.83;94.56;100916.09;5028303;28;20293;-82
2023/06/28 07:16:22;;;;;;;6.57;2.20;;;;;;;15.86;93.07;100958.13;5036839;28;20227;-80
2023/06/28 07:18:50;;;;;;;5.40;2.50;;;;;;;15.99;94.42;100943.63;5037676;28;20204;-80
2023/06/28 07:21:17;;;;;;;4.47;2.27;;;;;;;16.03;91.62;100974.19;5037015;28;20247;-83
2023/06/28 07:23:43;;;;;;;3.47;1.70;;;;;;;16.18;91.91;100998.34;5036715;28;20253;-81
2023/06/28 07:26:09;;;;;;;3.80;2.00;;;;;;;16.29;89.44;101014.63;5037037;28;20235;-81
2023/06/28 07:28:36;;;;;;;4.47;1.83;;;;;;;16.22;87.99;101078.97;5036140;28;20683;-81
2023/06/28 07:31:02;;;;;;;3.73;1.77;;;;;;;16.25;87.95;101087.66;5036409;28;20277;-81
2023/06/28 07:33:28;;;;;;;3.23;1.70;;;;;;;16.32;90.39;101046.16;5036161;28;20669;-83
2023/06/28 07:35:56;;;;;;;5.37;2.00;;;;;;;16.26;89.01;101063.00;5035148;28;20226;-81
2023/06/28 07:38:23;;;;;;;5.07;2.23;;;;;;;16.27;86.46;101101.63;5035758;28;20199;-81
2023/06/28 07:40:50;;;;;;;3.57;1.67;;;;;;;16.40;87.23;101102.09;5028264;28;20235;-81
2023/06/28 07:43:18;;;;;;;5.27;1.50;;;;;;;16.46;85.49;101135.28;5018436;28;20216;-82
2023/06/28 07:45:45;;;;;;;2.07;1.60;;;;;;;16.47;84.37;101152.81;5036774;28;20207;-83
2023/06/28 07:48:11;;;;;;;3.43;1.30;;;;;;;16.66;85.40;101153.09;5035962;28;20220;-81
2023/06/28 07:50:38;;;;;;;3.07;1.60;;;;;;;16.55;81.62;101200.91;5035696;28;20232;-81
2023/06/28 07:53:06;;;;;;;3.43;1.23;;;;;;;16.66;81.99;101211.09;5036593;28;20231;-83
2023/06/28 07:55:32;;;;;;;2.13;1.83;;;;;;;16.77;81.31;101231.81;5036913;28;20682;-81
2023/06/28 07:57:59;;;;;;;1.93;1.47;;;;;;;16.72;81.06;101242.53;5037095;28;20211;-81
2023/06/28 08:00:25;;;;;;;4.23;1.70;;;;;;;16.74;80.69;101251.25;5036332;28;20644;-81
2023/06/28 08:02:52;;;;;;;3.13;1.60;;;;;;;16.83;82.02;101236.94;5036495;28;20204;-81
2023/06/28 08:05:19;;;;;;;4.60;1.40;;;;;;;16.98;81.42;101207.41;5035668;28;20225;-82
2023/06/28 08:07:46;;;;;;;4.30;1.50;;;;;;;16.99;77.77;101284.78;5038150;28;20246;-79
2023/06/28 08:10:13;;;;;;;2.37;1.20;;;;;;;16.95;77.27;101328.84;5033427;28;20214;-81
2023/06/28 08:12:40;;;;;;;5.60;1.53;;;;;;;17.08;77.79;101313.50;5016192;28;20271;-82
2023/06/28 08:15:07;;;;;;;2.87;1.43;;;;;;;17.14;77.39;101326.47;5033140;28;20663;-82
2023/06/28 08:17:33;;;;;;;2.57;1.30;;;;;;;17.13;76.09;101350.31;5035641;28;20271;-83
2023/06/28 08:20:00;;;;;;;3.43;1.40;;;;;;;17.29;77.98;101325.13;5034981;28;20209;-82
2023/06/28 08:22:26;;;;;;;2.27;1.30;;;;;;;17.39;75.49;101363.50;5035074;28;20588;-82
2023/06/28 08:24:52;;;;;;;2.33;1.30;;;;;;;17.39;74.40;101429.50;5036078;28;20743;-82
2023/06/28 08:27:20;;;;;;;1.40;1.20;;;;;;;17.25;72.58;101455.47;5036169;28;20198;-83
2023/06/28 08:29:46;;;;;;;2.10;1.40;;;;;;;17.34;74.19;101444.59;5035061;28;20205;-80
2023/06/28 08:32:13;;;;;;;2.70;1.50;;;;;;;17.46;73.81;101427.50;5035273;28;20228;-82
2023/06/28 08:34:39;;;;;;;2.27;1.37;;;;;;;17.58;73.61;101428.91;5034549;28;20208;-82
2023/06/28 08:37:06;;;;;;;2.23;1.40;;;;;;;17.78;74.37;101392.16;5037901;28;20239;-82
2023/06/28 08:39:32;;;;;;;3.50;1.50;;;;;;;17.82;73.41;101427.25;5037275;28;20258;-82
2023/06/28 08:42:01;;;;;;;3.20;1.30;;;;;;;17.89;72.51;101452.56;5021578;28;20270;-83
2023/06/28 08:44:32;;;;;;;2.43;1.20;;;;;;;17.98;73.24;101464.63;5030863;28;20208;-82
2023/06/28 08:47:00;;;;;;;1.90;1.03;;;;;;;17.95;70.27;101520.19;5036867;28;20206;-83
2023/06/28 08:49:27;;;;;;;2.67;1.23;;;;;;;17.94;69.91;101521.09;5037199;28;20201;-84
2023/06/28 08:51:54;;;;;;;3.40;1.33;;;;;;;17.95;69.05;101547.47;5038892;28;20267;-83
2023/06/28 08:54:22;;;;;;;2.50;1.40;;;;;;;17.97;69.32;101542.13;5039458;28;20205;-85
2023/06/28 08:56:51;;;;;;;1.20;1.10;;;;;;;18.07;69.69;101511.84;5043124;28;20699;-83
2023/06/28 08:59:18;;;;;;;2.73;1.40;;;;;;;18.21;70.52;101521.97;5045791;28;20204;-82
2023/06/28 09:01:47;;;;;;;2.70;1.37;;;;;;;18.31;68.86;101535.75;5049066;28;20228;-82
2023/06/28 09:04:13;;;;;;;1.90;1.10;;;;;;;18.41;69.33;101506.31;5050081;28;20663;-80
2023/06/28 09:06:40;;;;;;;2.93;1.23;;;;;;;18.41;69.66;101514.25;5046454;28;20205;-82
2023/06/28 09:09:06;;;;;;;3.27;1.20;;;;;;;18.41;67.91;101542.44;5043080;28;20264;-82
2023/06/28 09:11:33;;;;;;;2.03;1.03;;;;;;;18.54;69.62;101500.59;5015855;28;20283;-83
2023/06/28 09:13:59;;;;;;;3.13;1.33;;;;;;;18.46;68.01;101529.94;5031320;28;20232;-83
2023/06/28 09:16:26;;;;;;;2.70;1.23;;;;;;;18.34;68.32;101560.31;5036410;28;20221;-82
2023/06/28 09:18:53;;;;;;;2.27;1.10;;;;;;;18.34;67.03;101554.16;5039235;28;20208;-82
2023/06/28 09:21:25;;;;;;;4.23;1.40;;;;;;;18.48;67.44;101554.53;5037934;28;20225;-84
2023/06/28 09:23:52;;;;;;;2.27;1.27;;;;;;;18.45;67.00;101560.81;5034696;28;20578;-82
2023/06/28 09:26:18;;;;;;;2.83;1.53;;;;;;;18.54;66.52;101545.53;5041813;28;20201;-82
2023/06/28 09:28:45;;;;;;;1.73;1.13;;;;;;;18.62;65.91;101577.88;5034529;28;20275;-84
2023/06/28 09:31:11;;;;;;;2.33;1.20;;;;;;;18.57;66.28;101587.72;5035350;28;20233;-84
2023/06/28 09:33:37;;;;;;;3.27;1.30;;;;;;;18.62;64.71;101607.81;5035343;28;20608;-83
2023/06/28 09:36:05;;;;;;;2.23;1.57;;;;;;;18.70;65.57;101622.59;5033784;28;20229;-82
2023/06/28 09:38:33;;;;;;;2.73;1.20;;;;;;;18.88;64.30;101602.59;5035852;28;20207;-84
2023/06/28 09:41:00;;;;;;;2.57;1.10;;;;;;;18.88;63.67;101648.44;5027180;28;20248;-84
2023/06/28 09:43:32;;;;;;;2.00;1.20;;;;;;;18.60;63.99;101661.69;5026500;28;20560;-83
2023/06/28 09:46:10;;;;;;;6.00;2.37;;;;;;;18.62;65.49;101618.41;5035112;28;20291;-83
2023/06/28 09:48:37;;;;;;;1.50;1.13;;;;;;;18.61;63.21;101660.75;5035546;28;20209;-82
2023/06/28 09:51:06;;;;;;;3.97;1.40;;;;;;;18.74;63.31;101656.81;5035826;28;20309;-81
2023/06/28 09:53:32;;;;;;;2.20;1.00;;;;;;;18.84;62.19;101657.38;5035707;28;20283;-82
2023/06/28 09:55:59;;;;;;;1.83;1.00;;;;;;;18.89;61.53;101663.41;5034093;28;20227;-82
2023/06/28 09:58:28;;;;;;;2.97;1.20;;;;;;;18.86;61.26;101682.00;5034132;28;20236;-82
2023/06/28 10:00:56;;;;;;;2.60;1.17;;;;;;;18.97;63.30;101671.09;5034850;28;20225;-82
2023/06/28 10:03:25;;;;;;;0.90;0.80;;;;;;;19.09;60.54;101720.06;5034260;28;20231;-81
2023/06/28 10:05:56;;;;;;;2.53;1.03;;;;;;;19.18;59.13;101764.75;5034592;28;20212;-82
2023/06/28 10:08:25;;;;;;;2.33;1.10;;;;;;;19.25;58.20;101779.53;5027825;28;20205;-82
2023/06/28 10:10:55;;;;;;;2.37;0.80;;;;;;;19.41;59.28;101779.88;5027849;28;20226;-83
2023/06/28 10:13:22;;;;;;;3.03;1.20;;;;;;;19.52;59.84;101827.16;5018599;28;20244;-80
2023/06/28 10:15:54;;;;;;;2.17;1.20;;;;;;;19.59;60.44;101810.16;5033701;28;20205;-82
2023/06/28 10:18:22;;;;;;;2.43;1.27;;;;;;;19.57;56.47;101814.63;5035365;28;20205;-81
2023/06/28 10:20:49;;;;;;;2.07;0.90;;;;;;;19.79;60.35;101769.72;5034646;28;20637;-83
2023/06/28 10:23:17;;;;;;;1.60;1.20;;;;;;;19.93;60.03;101753.31;5043605;28;20271;-82
2023/06/28 10:25:46;;;;;;;1.50;1.10;;;;;;;19.93;58.22;101785.97;5033863;28;20209;-82
2023/06/28 10:28:14;;;;;;;2.17;1.00;;;;;;;19.91;56.32;101839.97;5034092;28;20216;-83
2023/06/28 10:30:41;;;;;;;2.53;1.23;;;;;;;19.92;56.92;101841.69;5038525;28;20315;-82
2023/06/28 10:33:09;;;;;;;1.83;1.00;;;;;;;19.98;56.25;101858.25;5041848;28;20205;-81
2023/06/28 10:35:36;;;;;;;0.97;0.70;;;;;;;20.01;54.49;101886.44;5041279;28;20231;-82
2023/06/28 10:38:04;;;;;;;2.00;1.00;;;;;;;19.98;57.94;101862.66;5039100;28;20229;-82
2023/06/28 10:40:30;;;;;;;2.60;1.00;;;;;;;20.21;60.81;101747.84;5033268;28;20195;-81
2023/06/28 10:42:58;;;;;;;1.73;0.90;;;;;;;20.32;58.75;101745.66;5022155;28;20241;-80
2023/06/28 10:45:35;;;;;;;3.07;1.40;;;;;;;20.32;58.04;101752.75;5029948;28;20202;-82
2023/06/28 10:48:01;;;;;;;2.97;1.17;;;;;;;20.17;57.35;101789.50;5038846;28;20259;-84
2023/06/28 10:50:28;;;;;;;2.23;1.20;;;;;;;20.15;56.63;101801.97;5037449;28;20245;-81
2023/06/28 10:52:56;;;;;;;2.17;1.10;;;;;;;20.13;54.93;101822.34;5037627;28;20304;-83
2023/06/28 10:55:29;;;;;;;1.93;1.50;;;;;;;20.09;56.81;101815.44;5019139;28;20206;-83
2023/06/28 10:58:08;;;;;;;2.77;1.50;;;;;;;20.26;56.90;101813.94;5037415;28;20790;-84
2023/06/28 11:00:45;;;;;;;3.83;1.20;;;;;;;20.41;57.40;101760.31;5048077;28;20202;-82
2023/06/28 11:03:13;;;;;;;2.97;1.10;;;;;;;20.50;58.07;101759.97;5041142;28;20205;-83
2023/06/28 11:05:41;;;;;;;1.53;1.03;;;;;;;20.59;56.53;101764.06;5040658;28;20202;-83
2023/06/28 11:08:09;;;;;;;2.87;1.17;;;;;;;20.70;58.48;101756.56;5041026;28;20217;-82
2023/06/28 11:10:40;;;;;;;2.03;1.10;;;;;;;20.68;54.53;101850.44;5041260;28;20206;-83
2023/06/28 11:13:10;;;;;;;1.87;1.53;;;;;;;20.93;56.72;101781.28;5049254;28;20198;-83
2023/06/28 11:15:42;;;;;;;2.37;1.50;;;;;;;20.86;56.23;101791.31;5040642;28;20240;-82
2023/06/28 11:18:13;;;;;;;1.83;1.30;;;;;;;20.81;56.35;101775.56;5036223;28;20225;-80
2023/06/28 11:20:57;;;;;;;2.17;1.10;;;;;;;20.94;57.65;101759.16;5035981;28;20352;-81
2023/06/28 11:23:25;;;;;;;1.67;1.10;;;;;;;20.86;58.03;101727.59;5033587;28;20202;-82
2023/06/28 11:25:56;;;;;;;2.40;1.40;;;;;;;20.93;58.31;101707.84;5024789;28;20206;-81